• Join FlightAware (Why Join?)
  • Login
  • US Flag 
08:12PM EST


 

Airport Tracker/Info


-or-


 

Live Flight TrackerFlight Track Log ✈ UAL1254 ✈ 04-Aug-2013 ✈ KORD - KPDX

Flight Track Log - Related Links

Times and Time Zones

All times are in EDT time to prevent confusion due to time zone crossing. See the UAL1254 flight status page for this flight to view local times or setup timezone preferences in your user account.

Time Position Orientation Groundspeed Altitude Reporting Facility
EDT Latitude Longitude Course Direction KTS MPH feet Rate Location/Type
07:28PM 41.9930 -87.9370 320° Northwest 190 219 800  Level FlightAware
07:29PM 42.0080 -87.9520 323° Northwest 191 220 1,700 2,040 Climbing FlightAware
07:29PM 42.0250 -87.9680 325° Northwest 213 245 2,300 1,560 Climbing FlightAware
07:29PM 42.0420 -87.9850 323° Northwest 231 266 2,800 2,040 Climbing FlightAware
07:30PM 42.0600 -88.0000 328° Northwest 234 269 3,700 2,160 Climbing FlightAware
07:30PM 42.0860 -88.0240 326° Northwest 259 298 4,500 2,220 Climbing FlightAware
07:30PM 42.1030 -88.0380 329° Northwest 263 303 5,300 2,700 Climbing FlightAware
07:31PM 42.1200 -88.0520 329° Northwest 265 305 6,000 2,880 Climbing FlightAware
07:31PM 42.1390 -88.0720 322° Northwest 262 302 7,100 3,060 Climbing FlightAware
07:31PM 42.1450 -88.0880 297° West 262 302 7,600 2,520 Climbing FlightAware
07:31PM 42.1470 -88.1030 280° West 263 303 8,000 2,820 Climbing FlightAware
07:32PM 42.1440 -88.1440 264° West 265 305 9,200 2,520 Climbing FlightAware
07:32PM 42.1390 -88.2060 264° West 276 318 10,600 1,800 Climbing FlightAware
07:33PM 42.1340 -88.2670 264° West 302 348 11,400 1,200 Climbing FlightAware
07:34PM 42.1280 -88.3400 264° West 340 391 12,000 960 Climbing FlightAware
07:34PM 42.1230 -88.4100 265° West 372 428 12,500 1,800 Climbing FlightAware
07:35PM 42.1170 -88.5030 265° West 372 428 14,200 2,580 Climbing FlightAware
07:35PM 42.1110 -88.5750 264° West 371 427 15,600 2,220 Climbing FlightAware
07:36PM 42.1030 -88.6650 263° West 379 436 16,800 1,740 Climbing FlightAware
07:36PM 42.0960 -88.7410 263° West 386 444 17,700 1,620 Climbing FlightAware
07:37PM 42.0880 -88.8280 263° West 394 453 18,700 1,620 Climbing FlightAware
07:38PM 42.0860 -88.9150 268° West 399 459 19,700 1,500 Climbing FlightAware
07:38PM 42.0840 -89.0080 268° West 408 470 20,500 1,440 Climbing FlightAware
07:39PM 42.0830 -89.0900 269° West 410 472 21,400 1,500 Climbing FlightAware
07:39PM 42.0820 -89.1600 269° West 412 474 22,200 1,560 Climbing FlightAware
07:39PM 42.0820 -89.1770 270° West 412 474 22,400 1,800 Climbing FlightAware
07:40PM 42.0790 -89.3390 269° West 409 471 24,200 1,620 Climbing FlightAware
07:41PM 42.0780 -89.4310 269° West 409 471 25,100 1,320 Climbing FlightAware
07:42PM 42.0760 -89.5290 268° West 410 472 25,900 1,020 Climbing FlightAware
07:43PM 42.0760 -89.6190 270° West 410 472 26,600 1,140 Climbing FlightAware
07:43PM 42.0770 -89.7450 271° West 411 473 27,500 1,260 Climbing FlightAware
07:44PM 42.0790 -89.8320 272° West 412 474 28,100 960 Climbing FlightAware
07:44PM 42.0800 -89.9140 271° West 415 478 28,600 840 Climbing FlightAware
07:45PM 42.0820 -90.0040 272° West 420 483 29,100 1,020 Climbing FlightAware
07:45PM 42.0820 -90.0980 270° West 417 480 29,800 1,320 Climbing FlightAware
07:46PM 42.0820 -90.1700 270° West 411 473 30,500 1,560 Climbing FlightAware
07:47PM 42.0810 -90.2610 269° West 398 458 31,600 1,200 Climbing FlightAware
07:47PM 42.0790 -90.3390 268° West 394 453 32,000 360 Climbing FlightAware
07:48PM 42.0780 -90.4090 269° West 394 453 32,000  Level FlightAware
07:48PM 42.0760 -90.5310 269° West 394 453 32,000  Level FlightAware
07:49PM 42.0750 -90.6180 269° West 394 453 32,000  Level FlightAware
07:50PM 42.0740 -90.7040 269° West 394 453 32,000  Level FlightAware
07:50PM 42.0730 -90.7900 269° West 394 453 32,000  Level FlightAware
07:51PM 42.0790 -90.8750 275° West 387 445 32,000  Level FlightAware
07:51PM 42.1010 -90.9500 292° West 386 444 32,000  Level FlightAware
07:52PM 42.1240 -91.0270 292° West 386 444 32,000  Level FlightAware
07:52PM 42.1470 -91.1060 291° West 386 444 32,000  Level FlightAware
07:53PM 42.1670 -91.1740 292° West 386 444 32,000  Level FlightAware
07:54PM 42.1930 -91.2620 292° West 386 444 32,000  Level FlightAware
07:54PM 42.2160 -91.3400 292° West 386 444 32,000  Level FlightAware
07:55PM 42.2400 -91.4210 292° West 386 444 32,000  Level FlightAware
07:55PM 42.2630 -91.4980 292° West 386 444 32,000  Level FlightAware
07:56PM 42.2850 -91.5760 291° West 386 444 32,000  Level FlightAware
07:57PM 42.3090 -91.6570 292° West 387 445 32,000  Level FlightAware
07:57PM 42.3320 -91.7380 291° West 387 445 32,000  Level FlightAware
07:58PM 42.3530 -91.8090 292° West 387 445 32,000  Level FlightAware
07:58PM 42.3790 -91.8990 291° West 386 444 32,000  Level FlightAware
07:59PM 42.4030 -91.9860 291° West 385 443 32,000  Level FlightAware
08:00PM 42.4260 -92.0630 292° West 385 443 32,000  Level FlightAware
08:01PM 42.4930 -92.3000 291° West 384 442 32,000  Level FlightAware
08:02PM 42.5180 -92.3890 291° West 384 442 32,000  Level FlightAware
08:03PM 42.5400 -92.4660 291° West 384 442 32,000  Level FlightAware
08:03PM 42.5610 -92.5420 291° West 384 442 32,000  Level FlightAware
08:04PM 42.5810 -92.6120 291° West 384 442 32,000  Level FlightAware
08:05PM 42.6250 -92.7710 291° West 385 443 32,000  Level FlightAware
08:05PM 42.6480 -92.8530 291° West 386 444 32,000  Level FlightAware
08:06PM 42.6670 -92.9240 290° West 386 444 32,000  Level FlightAware
08:07PM 42.6910 -93.0080 291° West 387 445 32,000  Level FlightAware
08:07PM 42.7130 -93.0890 290° West 387 445 32,000  Level FlightAware
08:08PM 42.7340 -93.1690 290° West 386 444 32,000  Level FlightAware
08:08PM 42.7540 -93.2420 290° West 386 444 32,000  Level FlightAware
08:09PM 42.7770 -93.3270 290° West 385 443 32,000  Level FlightAware
08:09PM 42.8000 -93.4100 291° West 386 444 32,000  Level FlightAware
08:10PM 42.8190 -93.4810 290° West 386 444 32,000  Level FlightAware
08:11PM 42.8410 -93.5630 290° West 386 444 32,000  Level FlightAware
08:11PM 42.8620 -93.6410 290° West 386 444 32,000  Level FlightAware
08:12PM 42.8850 -93.7280 290° West 385 443 32,000  Level FlightAware
08:12PM 42.9070 -93.8100 290° West 385 443 32,000  Level FlightAware
08:13PM 42.9270 -93.8830 291° West 384 442 32,000  Level FlightAware
08:14PM 42.9490 -93.9670 290° West 385 443 32,000  Level FlightAware
08:14PM 42.9700 -94.0470 290° West 385 443 32,000  Level FlightAware
08:15PM 42.9890 -94.1210 289° West 384 442 32,000  Level FlightAware
08:15PM 43.0110 -94.2030 290° West 384 442 32,000 480 Level FlightAware
08:16PM 43.0330 -94.2880 290° West 381 438 32,600 900 Climbing FlightAware
08:16PM 43.0530 -94.3620 290° West 379 436 33,100 960 Climbing FlightAware
08:17PM 43.0730 -94.4420 289° West 375 432 33,700 720 Climbing FlightAware
08:18PM 43.0940 -94.5230 290° West 375 432 34,000 240 Climbing FlightAware
08:18PM 43.1110 -94.5880 290° West 376 433 34,000  Level FlightAware
08:19PM 43.1330 -94.6740 289° West 378 435 34,000  Level FlightAware
08:19PM 43.1540 -94.7560 289° West 379 436 34,000  Level FlightAware
08:19PM 43.1560 -94.7650 287° West 379 436 34,000  Level FlightAware
08:20PM 43.1890 -94.8920 290° West 378 435 34,000  Level FlightAware
08:21PM 43.2080 -94.9670 289° West 378 435 34,000  Level FlightAware
08:22PM 43.2290 -95.0510 289° West 379 436 34,000  Level FlightAware
08:22PM 43.2500 -95.1370 289° West 380 437 34,000  Level FlightAware
08:23PM 43.2790 -95.2500 289° West 379 436 34,000  Level FlightAware
08:24PM 43.3000 -95.3360 289° West 379 436 34,000  Level FlightAware
08:24PM 43.3190 -95.4090 290° West 378 435 34,000  Level FlightAware
08:25PM 43.3380 -95.4860 289° West 378 435 34,000  Level FlightAware
08:25PM 43.3590 -95.5720 289° West 377 434 34,000  Level FlightAware
08:26PM 43.3770 -95.6460 289° West 377 434 34,000  Level FlightAware
08:26PM 43.3970 -95.7270 289° West 377 434 34,000  Level FlightAware
08:27PM 43.4150 -95.8020 288° West 376 433 34,000  Level FlightAware
08:28PM 43.4370 -95.8890 289° West 375 432 34,000  Level FlightAware
08:28PM 43.4540 -95.9610 288° West 375 432 34,000  Level FlightAware
08:29PM 43.4730 -96.0410 288° West 376 433 34,000  Level FlightAware
08:29PM 43.4940 -96.1280 288° West 376 433 34,000  Level FlightAware
08:30PM 43.5130 -96.2050 289° West 377 434 34,000  Level FlightAware
08:31PM 43.5330 -96.2870 289° West 377 434 34,000  Level FlightAware
08:31PM 43.5520 -96.3680 288° West 377 434 34,000  Level FlightAware
08:32PM 43.5690 -96.4400 288° West 378 435 34,000  Level FlightAware
08:32PM 43.5880 -96.5190 288° West 378 435 34,000  Level FlightAware
08:33PM 43.6080 -96.6030 288° West 378 435 34,000  Level FlightAware
08:33PM 43.6250 -96.6780 287° West 378 435 34,000  Level FlightAware
08:34PM 43.6450 -96.7620 288° West 379 436 34,000  Level FlightAware
08:35PM 43.6680 -96.8410 292° West 381 438 34,000  Level FlightAware
08:35PM 43.6940 -96.9220 294° West 381 438 34,000  Level FlightAware
08:36PM 43.7180 -96.9980 294° West 382 440 34,000  Level FlightAware
08:36PM 43.7410 -97.0710 294° West 382 440 34,000  Level FlightAware
08:37PM 43.7660 -97.1510 293° West 382 440 34,000  Level FlightAware
08:38PM 43.7910 -97.2280 294° West 382 440 34,000  Level FlightAware
08:38PM 43.8160 -97.3110 293° West 381 438 34,000  Level FlightAware
08:39PM 43.8410 -97.3880 294° West 381 438 34,000  Level FlightAware
08:39PM 43.8660 -97.4680 293° West 381 438 34,000  Level FlightAware
08:40PM 43.8830 -97.5260 292° West 381 438 34,000  Level FlightAware
08:41PM 43.9070 -97.6050 293° West 381 438 34,000  Level FlightAware
08:41PM 43.9290 -97.6750 294° West 381 438 34,000  Level FlightAware
08:42PM 43.9620 -97.7830 293° West 382 440 34,000  Level FlightAware
08:43PM 43.9820 -97.8680 288° West 381 438 34,000  Level FlightAware
08:43PM 44.0020 -98.0000 282° West 380 437 34,000  Level FlightAware
08:44PM 44.0210 -98.1060 284° West 381 438 34,000  Level FlightAware
08:44PM 44.0310 -98.1620 284° West 380 437 34,000  Level FlightAware
08:45PM 44.0440 -98.2450 282° West 380 437 34,000  Level FlightAware
08:46PM 44.0570 -98.3180 284° West 380 437 34,000  Level FlightAware
08:46PM 44.0690 -98.3930 283° West 380 437 34,000  Level FlightAware
08:47PM 44.0810 -98.4660 283° West 380 437 34,000  Level FlightAware
08:47PM 44.0930 -98.5390 283° West 380 437 34,000  Level FlightAware
08:48PM 44.1050 -98.6120 283° West 380 437 34,000  Level FlightAware
08:49PM 44.1170 -98.6850 283° West 380 437 34,000  Level FlightAware
08:49PM 44.1290 -98.7580 283° West 380 437 34,000  Level FlightAware
08:50PM 44.1420 -98.8310 284° West 380 437 34,000  Level FlightAware
08:50PM 44.1540 -98.9040 283° West 380 437 34,000  Level FlightAware
08:51PM 44.1660 -98.9770 283° West 380 437 34,000  Level FlightAware
08:52PM 44.1770 -99.0460 283° West 380 437 34,000  Level FlightAware
08:52PM 44.1900 -99.1210 284° West 380 437 34,000  Level FlightAware
08:53PM 44.2020 -99.1940 283° West 380 437 34,000  Level FlightAware
08:53PM 44.2140 -99.2720 282° West 380 437 34,000  Level FlightAware
08:54PM 44.2260 -99.3450 283° West 380 437 34,000  Level FlightAware
08:55PM 44.2703 -99.5731 283° West 366 421 34,000  Level Denver Center
08:56PM 44.2917 -99.7133 282° West 367 422 34,000  Level Denver Center
08:57PM 44.3139 -99.8556 282° West 370 426 34,000  Level Denver Center
08:58PM 44.3361 -99.9989 282° West 371 427 34,000  Level Minneapolis Center
08:59PM 44.3583 -100.1394 283° West 370 426 34,000  Level Minneapolis Center
09:00PM 44.3844 -100.3083 282° West 369 425 34,000  Level Minneapolis Center
09:01PM 44.4069 -100.4517 282° West 372 428 34,000  Level Minneapolis Center
09:02PM 44.4286 -100.5928 282° West 372 428 34,000  Level Minneapolis Center
09:03PM 44.4508 -100.7361 282° West 374 430 34,000  Level Minneapolis Center
09:04PM 44.4717 -100.8783 282° West 373 429 34,000  Level Minneapolis Center
09:05PM 44.4972 -101.0511 282° West 375 432 34,000  Level Minneapolis Center
09:06PM 44.5186 -101.1931 282° West 374 430 34,000  Level Minneapolis Center
09:07PM 44.5353 -101.3078 282° West 374 430 34,000  Level Minneapolis Center
09:08PM 44.5578 -101.4492 283° West 375 432 34,000  Level Denver Center
09:09PM 44.5781 -101.5936 281° West 376 433 34,000  Level Denver Center
09:10PM 44.6031 -101.7664 282° West 377 434 34,000  Level Denver Center
09:11PM 44.6231 -101.9092 281° West 374 430 34,000  Level Denver Center
09:12PM 44.6428 -102.0519 281° West 373 429 34,000  Level Denver Center
09:13PM 44.6619 -102.1958 281° West 374 430 34,000  Level Denver Center
09:14PM 44.6828 -102.3383 282° West 373 429 34,000  Level Denver Center
09:15PM 44.7014 -102.4789 281° West 368 423 34,000  Level Denver Center
09:16PM 44.7208 -102.6217 281° West 371 427 34,000  Level Denver Center
09:17PM 44.7444 -102.7956 281° West 375 432 34,000  Level Denver Center
09:18PM 44.7625 -102.9406 280° West 377 434 34,000  Level Denver Center
09:19PM 44.7819 -103.0881 281° West 381 438 34,000  Level Denver Center
09:20PM 44.8014 -103.2342 281° West 381 438 34,000  Level Denver Center
09:21PM 44.8192 -103.3783 280° West 376 433 34,000  Level Denver Center
09:22PM 44.8383 -103.5353 280° West 379 436 34,000  Level Denver Center
09:23PM 44.8569 -103.6744 281° West 379 436 34,000  Level Denver Center
09:24PM 44.8753 -103.8344 279° West 374 430 34,000  Level Denver Center
09:25PM 44.8922 -103.9714 280° West 372 428 34,000  Level Denver Center
09:27PM 44.9117 -104.1272 280° West 366 421 34,000  Level Denver Center
09:27PM 44.9200 -104.1944 280° West 370 426 34,000  Level Salt Lake Center
09:28PM 44.9383 -104.3517 279° West 367 422 34,000  Level Salt Lake Center
09:29PM 44.9464 -104.4214 279° West 367 422 34,000  Level Denver Center
09:30PM 44.9625 -104.5578 280° West 369 425 34,000  Level Denver Center
09:30PM 44.9708 -104.6344 279° West 370 426 34,000  Level Salt Lake Center
09:31PM 44.9883 -104.7775 280° West 371 427 34,000  Level Salt Lake Center
09:32PM 45.0036 -104.9219 279° West 372 428 34,000  Level Salt Lake Center
09:33PM 45.0131 -105.0097 279° West 373 429 34,000  Level Denver Center
09:34PM 45.0292 -105.1528 279° West 371 427 34,000  Level Denver Center
09:34PM 45.0353 -105.2094 279° West 371 427 34,000  Level Salt Lake Center
09:35PM 45.0536 -105.3811 279° West 371 427 34,000  Level Salt Lake Center
09:36PM 45.0694 -105.5256 279° West 371 427 34,000  Level Salt Lake Center
09:37PM 45.0847 -105.6697 279° West 374 430 34,000  Level Salt Lake Center
09:38PM 45.1003 -105.8150 279° West 373 429 34,000  Level Salt Lake Center
09:39PM 45.1092 -105.9022 278° West 374 430 34,000  Level Denver Center
09:40PM 45.1239 -106.0475 278° West 374 430 34,000  Level Denver Center
09:41PM 45.1397 -106.1947 279° West 378 435 34,000  Level Denver Center
09:42PM 45.1536 -106.3411 278° West 378 435 34,000  Level Denver Center
09:43PM 45.1686 -106.4897 278° West 380 437 34,000  Level Denver Center
09:44PM 45.1853 -106.6664 278° West 379 436 34,000  Level Denver Center
09:46PM 45.2069 -106.8750 278° West 382 440 34,000  Level Salt Lake Center
09:47PM 45.2197 -107.0253 277° West 384 442 34,000  Level Salt Lake Center
09:48PM 45.2339 -107.1744 278° West 385 443 34,000  Level Salt Lake Center
09:49PM 45.2489 -107.3519 277° West 382 440 34,000  Level Salt Lake Center
09:50PM 45.2636 -107.5022 278° West 386 444 34,000  Level Salt Lake Center
09:51PM 45.2761 -107.6539 277° West 389 448 34,000  Level Salt Lake Center
09:52PM 45.2883 -107.8064 277° West 393 452 34,000  Level Salt Lake Center
09:53PM 45.3019 -107.9600 277° West 397 457 34,000  Level Salt Lake Center
09:54PM 45.3147 -108.1150 277° West 399 459 34,000  Level Salt Lake Center
09:55PM 45.3303 -108.3047 277° West 408 470 34,000  Level Salt Lake Center
09:56PM 45.3428 -108.4631 276° West 406 467 34,000  Level Salt Lake Center
09:57PM 45.3553 -108.6222 276° West 406 467 34,000  Level Salt Lake Center
09:58PM 45.3678 -108.7822 276° West 411 473 34,000  Level Salt Lake Center
09:59PM 45.3800 -108.9419 276° West 408 470 34,000  Level Salt Lake Center
10:00PM 45.3914 -109.1008 276° West 407 468 34,000  Level Salt Lake Center
10:01PM 45.4033 -109.2600 276° West 407 468 34,000  Level Salt Lake Center
10:02PM 45.4178 -109.4514 276° West 408 470 34,000  Level Salt Lake Center
10:03PM 45.4294 -109.6089 276° West 404 465 34,000  Level Salt Lake Center
10:04PM 45.4400 -109.7658 276° West 399 459 34,000  Level Salt Lake Center
10:05PM 45.4514 -109.9231 276° West 401 461 34,000  Level Salt Lake Center
10:06PM 45.4614 -110.0808 275° West 401 461 34,000  Level Salt Lake Center
10:07PM 45.4714 -110.2372 275° West 399 459 34,000  Level Salt Lake Center
10:08PM 45.4819 -110.3914 276° West 395 455 34,000  Level Salt Lake Center
10:09PM 45.4928 -110.5767 275° West 392 451 34,000  Level Salt Lake Center
10:10PM 45.5003 -110.7069 275° West 391 450 34,000  Level Salt Lake Center
10:11PM 45.5106 -110.8983 274° West 402 463 34,000  Level Salt Lake Center
10:12PM 45.5197 -111.0614 275° West 407 468 34,000  Level Salt Lake Center
10:13PM 45.5292 -111.2258 275° West 410 472 34,000  Level Salt Lake Center
10:14PM 45.5383 -111.3908 275° West 412 474 34,000  Level Salt Lake Center
10:15PM 45.5472 -111.5553 274° West 413 475 34,000  Level Salt Lake Center
10:16PM 45.5553 -111.7200 274° West 414 476 34,000  Level Salt Lake Center
10:17PM 45.5644 -111.8819 275° West 411 473 34,000  Level Salt Lake Center
10:18PM 45.5719 -112.0425 274° West 406 467 34,000  Level Salt Lake Center
10:19PM 45.5800 -112.2028 274° West 405 466 34,000  Level Salt Lake Center
10:20PM 45.5878 -112.3633 274° West 405 466 34,000  Level Salt Lake Center
10:21PM 45.5942 -112.5231 273° West 403 464 34,000  Level Salt Lake Center
10:23PM 45.6031 -112.7156 274° West 403 464 34,000  Level Salt Lake Center
10:24PM 45.6094 -112.8767 273° West 406 467 34,000  Level Salt Lake Center
10:25PM 45.6158 -113.0350 273° West 401 461 34,000  Level Salt Lake Center
10:26PM 45.6214 -113.1939 273° West 401 461 34,000  Level Salt Lake Center
10:27PM 45.6278 -113.3547 273° West 407 468 34,000  Level Salt Lake Center
10:28PM 45.6336 -113.5169 273° West 408 470 34,000  Level Salt Lake Center
10:29PM 45.6397 -113.6700 273° West 409 471 34,000  Level Salt Lake Center
10:30PM 45.6472 -113.8625 273° West 406 467 34,000 -60 Level Salt Lake Center
10:31PM 45.6517 -114.0272 272° West 413 475 33,900 -60 Descending Salt Lake Center
10:32PM 45.6564 -114.1889 272° West 409 471 33,900  Level Salt Lake Center
10:33PM 45.6617 -114.3511 273° West 409 471 33,900  Level Salt Lake Center
10:34PM 45.6669 -114.5358 272° West 409 471 34,000  Climbing Salt Lake Center
10:39PM 45.6840 -115.3890 272° West 410 472 34,000  Level FlightAware
10:40PM 45.6820 -115.4760 268° West 410 472 34,000  Level FlightAware
10:40PM 45.6810 -115.5800 269° West 411 473 34,000  Level FlightAware
10:41PM 45.6800 -115.6650 269° West 412 474 34,000  Level FlightAware
10:41PM 45.6790 -115.7690 269° West 412 474 34,000  Level FlightAware
10:42PM 45.6770 -115.8560 268° West 412 474 34,000  Level FlightAware
10:43PM 45.6760 -115.9550 269° West 411 473 34,000  Level FlightAware
10:43PM 45.6740 -116.0570 268° West 411 473 34,000  Level FlightAware
10:44PM 45.6720 -116.1440 268° West 411 473 34,000  Level FlightAware
10:44PM 45.6710 -116.2400 269° West 411 473 34,000  Level FlightAware
10:45PM 45.6690 -116.3280 268° West 410 472 34,000  Level FlightAware
10:45PM 45.6670 -116.4230 268° West 409 471 34,000  Level FlightAware
10:46PM 45.6650 -116.5280 268° West 410 472 34,000  Level FlightAware
10:47PM 45.6630 -116.6140 268° West 411 473 34,000  Level FlightAware
10:47PM 45.6610 -116.7110 268° West 410 472 34,000  Level FlightAware
10:48PM 45.6590 -116.8070 268° West 410 472 34,000  Level FlightAware
10:48PM 45.6570 -116.8950 268° West 411 473 34,000  Level FlightAware
10:49PM 45.6540 -116.9980 268° West 412 474 34,000  Level FlightAware
10:50PM 45.6520 -117.0960 268° West 413 475 34,000  Level FlightAware
10:50PM 45.6490 -117.1960 268° West 414 476 34,000  Level FlightAware
10:51PM 45.6470 -117.2810 268° West 414 476 34,000  Level FlightAware
10:51PM 45.6440 -117.3800 268° West 413 475 34,000  Level FlightAware
10:52PM 45.6410 -117.4790 268° West 411 473 34,000  Level FlightAware
10:52PM 45.6390 -117.5620 268° West 409 471 34,000  Level FlightAware
10:53PM 45.6360 -117.6610 268° West 408 470 34,000  Level FlightAware
10:54PM 45.6330 -117.7590 268° West 407 468 34,000  Level FlightAware
10:54PM 45.6290 -117.8540 267° West 407 468 34,000  Level FlightAware
10:55PM 45.6270 -117.9400 268° West 407 468 34,000  Level FlightAware
10:55PM 45.6230 -118.0360 267° West 407 468 34,000  Level FlightAware
10:56PM 45.6200 -118.1380 268° West 408 470 34,000  Level FlightAware
10:57PM 45.6170 -118.2230 267° West 409 471 34,000  Level FlightAware
10:57PM 45.6130 -118.3220 267° West 413 475 34,000  Level FlightAware
10:58PM 45.6100 -118.4210 268° West 416 479 34,000  Level FlightAware
10:58PM 45.6060 -118.5170 267° West 417 480 34,000  Level FlightAware
10:59PM 45.6030 -118.6060 267° West 418 481 34,000  Level FlightAware
10:59PM 45.5990 -118.7070 267° West 419 482 34,000  Level FlightAware
11:00PM 45.5950 -118.7990 266° West 419 482 34,000  Level FlightAware
11:01PM 45.5910 -118.9000 267° West 417 480 34,000  Level FlightAware
11:01PM 45.5870 -118.9960 267° West 415 478 34,000  Level FlightAware
11:02PM 45.5830 -119.0860 266° West 415 478 34,000  Level FlightAware
11:02PM 45.5790 -119.1780 266° West 415 478 34,000  Level FlightAware
11:03PM 45.5740 -119.2800 266° West 414 476 34,000  Level FlightAware
11:04PM 45.5690 -119.3780 266° West 415 478 34,000  Level FlightAware
11:04PM 45.5650 -119.4660 266° West 416 479 34,000  Level FlightAware
11:05PM 45.5610 -119.5660 267° West 417 480 34,000  Level FlightAware
11:05PM 45.5560 -119.6640 266° West 418 481 34,000  Level FlightAware
11:06PM 45.5510 -119.7640 266° West 420 483 34,000  Level FlightAware
11:06PM 45.5470 -119.8510 266° West 422 486 34,000 -540 Level FlightAware
11:07PM 45.5420 -119.9550 266° West 417 480 33,400 -1,200 Descending FlightAware
11:08PM 45.5370 -120.0440 265° West 413 475 32,600 -1,860 Descending FlightAware
11:08PM 45.5330 -120.1310 266° West 406 467 31,400 -2,220 Descending FlightAware
11:09PM 45.5270 -120.2350 265° West 397 457 30,000 -2,280 Descending FlightAware
11:09PM 45.5220 -120.3290 266° West 388 447 28,600 -2,160 Descending FlightAware
11:10PM 45.5180 -120.4130 266° West 383 441 27,500 -2,040 Descending FlightAware
11:11PM 45.5190 -120.4960 271° West 376 433 26,300 -1,440 Descending FlightAware
11:11PM 45.5200 -120.6040 271° West 372 428 25,600 -540 Descending FlightAware
11:12PM 45.5210 -120.6810 271° West 372 428 25,600  Level FlightAware
11:13PM 45.5220 -120.7560 271° West 372 428 25,600  Level FlightAware
11:13PM 45.5230 -120.8310 271° West 372 428 25,600  Level FlightAware
11:14PM 45.5240 -120.9060 271° West 372 428 25,600  Level FlightAware
11:14PM 45.5250 -120.9820 271° West 372 428 25,600 -6,000 Level FlightAware
11:15PM 45.5267 -121.1781 271° West 366 421 16,700 -5,760 Descending Seattle Center
11:16PM 45.5272 -121.3172 270° West 356 410 14,800 -1,920 Descending Seattle Center
11:17PM 45.5286 -121.4511 271° West 343 395 12,900 -1,800 Descending Seattle Center
11:18PM 45.5286 -121.5803 270° West 328 377 11,200 -1,440 Descending Seattle Center
11:19PM 45.5292 -121.7017 270° West 311 358 10,000 -1,140 Descending Seattle Center
11:20PM 45.5331 -121.7736 274° West 278 320 9,500 -1,140 Descending Seattle Center
11:20PM 45.5297 -121.8100 263° West 281 323 8,900 -1,500 Descending Seattle Center
11:21PM 45.5292 -121.9172 270° West 272 313 7,300 -1,680 Descending Seattle Center
11:22PM 45.5281 -121.9889 269° West 278 320 6,400 -1,140 Descending Seattle Center
11:22PM 45.5258 -122.0342 266° West 273 314 6,200 -780 Descending Seattle Center
11:23PM 45.5231 -122.1386 268° West 269 310 5,300 -600 Descending Seattle Center
11:24PM 45.5183 -122.1939 263° West 255 293 5,300 -120 Level Seattle Center
11:24PM 45.5186 -122.2372 271° West 256 295 5,200 -840 Descending Seattle Center
11:25PM 45.5156 -122.3339 267° West 249 287 4,100 -1,320 Descending Seattle Center
11:26PM 45.5250 -122.4181 279° West 228 262 2,600 -1,380 Descending Seattle Center
11:27PM 45.5539 -122.4875 301° West 215 247 1,400 -1,320 Descending Seattle Center
11:28PM 45.5658 -122.5231 296° West 154 177 700 -1,020 Descending Seattle Center
11:28PM 45.5758 -122.5456 302° West 194 223 400 -600 Descending Seattle Center